Wisconsin Rapids, Wisconsin
Current Conditions -  °F | °C
As of 1:54 AM on Monday 26 Jan 2015 (Local Time) from KISW Reporting Station
Clear Clear  
Wind Chill: -17°   Ceiling: Unl
Heat Index: -12°   Visibility: 10mi
Dew Point: -15°   Wind: 5mph
Humidity: 80%   Direction: 170°S
Pressure: 29.99"   Gusts: NA
Location:  44.39°N, 89.82°W
Report Text: KISW 260754Z AUTO 17004KT 10SM CLR M12/M15 A2999 RMK AO2 SLP176 T11221150
Loading
Personal Weather Stations






























Interactive Weather Map New forecast layout! Learn more

10-Day Weather Forecast

Advertisements
Track Severe Weather on mobile